DWD Radarbild

   
[Quelle: ADDS]
METAR
EDLP 192120Z 19008KT CAVOK 16/08 Q1019 =
AMD EDLP 192057Z 1920/2018 19005KT CAVOK BECMG 2006/2009 27007KT
TAF
AMD EDLP 192057Z 1920/2018 19005KT CAVOK BECMG 2006/2009 27007KT =
   
   

Meine WettercamWettercam aus Bielefeld Senne - Blickrichtung Süd-Ostjede Min. ein neues Bild

   
Moon phase
Phase:
Abnehmend

Mondphase:
83%

Alter:
19 Tage

Entfernung:
249,783 Km

Zeit:
23:47:41

Datum:
19-08-2019

   
<<  Aug 2019  >>
 Mo  Di  Mi  Do  Fr  Sa  So 
     1  2  3  4
  5  6  7  8  91011
12131415161718
19202122232425
262728293031